Time;durP1;ratioP1;P1;durP2;ratioP2;P2;SDS_P1;SDS_P2;PMS_P1;PMS_P2;Temp;Humidity;BMP_temperature;BMP_pressure;BME280_temperature;BME280_humidity;BME280_pressure;Samples;Min_cycle;Max_cycle;Signal;HPM_P1;HPM_P2
2023/12/31 00:02:24;;;;;;;4.57;2.55;;;;;;;-146.58;100.00;69501.63;5032045;28;20092;-63
2023/12/31 00:04:49;;;;;;;3.20;2.90;;;;;;;-146.58;100.00;69501.63;5034359;28;20373;-63
2023/12/31 00:07:15;;;;;;;3.10;2.80;;;;;;;-146.58;100.00;69501.63;5040242;28;20055;-63
2023/12/31 00:09:40;;;;;;;3.15;2.85;;;;;;;-146.58;100.00;69501.63;5053732;28;20025;-63
2023/12/31 00:12:06;;;;;;;3.83;2.92;;;;;;;-146.58;100.00;69501.63;5036264;28;20504;-64
2023/12/31 00:14:31;;;;;;;5.85;2.53;;;;;;;-146.58;100.00;69501.63;5033877;28;20057;-63
2023/12/31 00:16:56;;;;;;;3.13;2.30;;;;;;;-146.58;100.00;69501.63;5032272;28;20056;-63
2023/12/31 00:19:22;;;;;;;5.18;3.22;;;;;;;-146.58;100.00;69501.63;5034372;28;20013;-63
2023/12/31 00:21:47;;;;;;;6.60;2.88;;;;;;;-146.58;100.00;69501.63;5032504;28;20377;-63
2023/12/31 00:24:13;;;;;;;2.85;2.38;;;;;;;-146.58;100.00;69501.63;5033314;28;20018;-63
2023/12/31 00:26:38;;;;;;;3.08;2.67;;;;;;;-146.58;100.00;69501.63;5032149;28;20042;-63
2023/12/31 00:29:04;;;;;;;2.33;2.20;;;;;;;-146.58;100.00;69501.63;5034083;28;20029;-63
2023/12/31 00:31:29;;;;;;;4.00;2.25;;;;;;;-146.58;100.00;69501.63;5031623;28;20042;-63
2023/12/31 00:33:56;;;;;;;4.75;3.05;;;;;;;-146.58;100.00;69501.63;5033693;28;20039;-63
2023/12/31 00:36:23;;;;;;;4.82;3.20;;;;;;;-146.58;100.00;69501.63;5048702;28;20048;-63
2023/12/31 00:38:48;;;;;;;3.72;2.67;;;;;;;-146.58;100.00;69501.63;5053189;28;20043;-63
2023/12/31 00:41:14;;;;;;;2.33;2.13;;;;;;;-146.58;100.00;69501.63;5043335;28;20504;-63
2023/12/31 00:43:39;;;;;;;2.80;2.40;;;;;;;-146.58;100.00;69501.63;5033411;28;20025;-64
2023/12/31 00:46:05;;;;;;;4.90;4.00;;;;;;;-146.58;100.00;69501.63;5031875;28;20042;-64
2023/12/31 00:48:30;;;;;;;2.65;2.55;;;;;;;-146.58;100.00;69501.63;5033186;28;20021;-64
2023/12/31 00:50:55;;;;;;;3.90;2.08;;;;;;;-146.58;100.00;69501.63;5031878;28;20041;-64
2023/12/31 00:53:21;;;;;;;2.88;2.53;;;;;;;-146.58;100.00;69501.63;5032772;28;20044;-64
2023/12/31 00:55:46;;;;;;;3.25;2.35;;;;;;;-146.58;100.00;69501.63;5031778;28;20099;-64
2023/12/31 00:58:11;;;;;;;2.78;2.22;;;;;;;-146.58;100.00;69501.63;5033281;28;20468;-64
2023/12/31 01:00:38;;;;;;;2.80;2.33;;;;;;;-146.58;100.00;69501.63;5031190;28;20037;-64
2023/12/31 01:03:03;;;;;;;2.40;2.20;;;;;;;-146.58;100.00;69501.63;5033500;28;20028;-64
2023/12/31 01:05:29;;;;;;;3.38;2.00;;;;;;;-146.58;100.00;69501.63;5032836;28;20045;-64
2023/12/31 01:07:54;;;;;;;2.72;2.25;;;;;;;-146.58;100.00;69501.63;5032671;28;20052;-64
2023/12/31 01:10:19;;;;;;;6.97;3.90;;;;;;;-146.58;100.00;69501.63;5031772;28;20408;-64
2023/12/31 01:12:45;;;;;;;2.30;2.10;;;;;;;-146.58;100.00;69501.63;5052614;28;20033;-64
2023/12/31 01:15:10;;;;;;;5.03;2.13;;;;;;;-146.58;100.00;69501.63;5050963;28;20037;-64
2023/12/31 01:17:36;;;;;;;3.22;1.55;;;;;;;-146.58;100.00;69501.63;5052714;28;20020;-64
2023/12/31 01:20:01;;;;;;;2.20;1.83;;;;;;;-146.58;100.00;69501.63;5046254;28;20037;-64
2023/12/31 01:22:27;;;;;;;5.93;1.90;;;;;;;-146.58;100.00;69501.63;5032505;28;20017;-64
2023/12/31 01:24:52;;;;;;;3.45;3.15;;;;;;;-146.58;100.00;69501.63;5031396;28;20038;-64
2023/12/31 01:27:17;;;;;;;3.55;2.25;;;;;;;-146.58;100.00;69501.63;5051407;28;20021;-64
2023/12/31 01:29:43;;;;;;;2.30;2.10;;;;;;;-146.58;100.00;69501.63;5050712;28;20384;-64
2023/12/31 01:32:09;;;;;;;2.88;2.67;;;;;;;-146.58;100.00;69501.63;5045310;28;20021;-64
2023/12/31 01:34:34;;;;;;;5.45;3.75;;;;;;;-146.58;100.00;69501.63;5030923;28;20444;-64
2023/12/31 01:37:00;;;;;;;2.25;2.05;;;;;;;-146.58;100.00;69501.63;5032406;28;20025;-64
2023/12/31 01:39:25;;;;;;;1.88;1.77;;;;;;;-146.58;100.00;69501.63;5030527;28;20033;-64
2023/12/31 01:41:51;;;;;;;2.50;2.30;;;;;;;-146.58;100.00;69501.63;5045023;28;20032;-64
2023/12/31 01:44:16;;;;;;;2.03;1.92;;;;;;;-146.58;100.00;69501.63;5051097;28;20048;-64
2023/12/31 01:46:42;;;;;;;2.65;1.80;;;;;;;-146.58;100.00;69501.63;5051766;28;20666;-64
2023/12/31 01:49:09;;;;;;;4.32;2.92;;;;;;;-146.58;100.00;69501.63;5035412;28;20045;-64
2023/12/31 01:51:35;;;;;;;2.63;2.42;;;;;;;-146.58;100.00;69501.63;5031669;28;20039;-64
2023/12/31 01:54:02;;;;;;;2.90;2.67;;;;;;;-146.58;100.00;69501.63;5030176;28;20122;-64
2023/12/31 01:56:28;;;;;;;2.63;2.42;;;;;;;-146.58;100.00;69501.63;5031857;28;20029;-64
2023/12/31 01:58:55;;;;;;;3.15;2.90;;;;;;;-146.58;100.00;69501.63;5030919;28;20018;-63
2023/12/31 02:01:22;;;;;;;2.95;2.75;;;;;;;-146.58;100.00;69501.63;5031732;28;20033;-64
2023/12/31 02:03:48;;;;;;;6.43;2.83;;;;;;;-146.58;100.00;69501.63;5033423;28;20527;-64
2023/12/31 02:06:13;;;;;;;2.60;2.38;;;;;;;-146.58;100.00;69501.63;5051978;28;20067;-64
2023/12/31 02:08:39;;;;;;;2.80;2.60;;;;;;;-146.58;100.00;69501.63;5047965;28;20400;-63
2023/12/31 02:11:05;;;;;;;2.65;2.15;;;;;;;-146.58;100.00;69501.63;5051980;28;20020;-64
2023/12/31 02:13:31;;;;;;;5.80;2.50;;;;;;;-146.58;100.00;69501.63;5051512;28;20029;-64
2023/12/31 02:15:56;;;;;;;9.23;4.70;;;;;;;-146.58;100.00;69501.63;5043023;28;20056;-64
2023/12/31 02:18:24;;;;;;;3.58;3.00;;;;;;;-146.58;100.00;69501.63;5031931;28;20025;-64
2023/12/31 02:20:50;;;;;;;3.63;3.33;;;;;;;-146.58;100.00;69501.63;5030309;28;20042;-64
2023/12/31 02:23:15;;;;;;;2.50;2.30;;;;;;;-146.58;100.00;69501.63;5031344;28;20533;-64
2023/12/31 02:25:43;;;;;;;4.60;2.67;;;;;;;-146.58;100.00;69501.63;5030107;28;20041;-64
2023/12/31 02:28:11;;;;;;;6.07;3.25;;;;;;;-146.58;100.00;69501.63;5031894;28;20025;-63
2023/12/31 02:30:37;;;;;;;2.45;2.25;;;;;;;-146.58;100.00;69501.63;5029607;28;20048;-63
2023/12/31 02:33:02;;;;;;;2.95;2.75;;;;;;;-146.58;100.00;69501.63;5031437;28;20388;-63
2023/12/31 02:35:27;;;;;;;4.22;3.92;;;;;;;-146.58;100.00;69501.63;5029822;28;20049;-63
2023/12/31 02:37:53;;;;;;;4.10;3.72;;;;;;;-146.58;100.00;69501.63;5031008;28;20465;-63
2023/12/31 02:40:18;;;;;;;3.03;2.83;;;;;;;-146.58;100.00;69501.63;5029827;28;20038;-63
2023/12/31 02:42:44;;;;;;;7.82;4.93;;;;;;;-146.58;100.00;69501.63;5031168;28;20029;-63
2023/12/31 02:45:09;;;;;;;3.20;2.88;;;;;;;-146.58;100.00;69501.63;5029415;28;20072;-63
2023/12/31 02:47:35;;;;;;;3.75;3.45;;;;;;;-146.58;100.00;69501.63;5042370;28;20033;-63
2023/12/31 02:50:00;;;;;;;3.50;3.17;;;;;;;-146.58;100.00;69501.63;5049618;28;20036;-63
2023/12/31 02:52:25;;;;;;;3.17;2.97;;;;;;;-146.58;100.00;69501.63;5050470;28;20025;-64
2023/12/31 02:54:51;;;;;;;3.17;2.70;;;;;;;-146.58;100.00;69501.63;5042269;28;20048;-63
2023/12/31 02:57:18;;;;;;;3.15;2.90;;;;;;;-146.58;100.00;69501.63;5051076;28;20029;-63
2023/12/31 02:59:44;;;;;;;5.38;3.50;;;;;;;-146.58;100.00;69501.63;5048981;28;20041;-63
2023/12/31 03:02:09;;;;;;;3.20;2.97;;;;;;;-146.58;100.00;69501.63;5051030;28;20047;-63
2023/12/31 03:04:39;;;;;;;5.22;3.22;;;;;;;-146.58;100.00;69501.63;5049285;28;20037;-63
2023/12/31 03:07:04;;;;;;;3.03;2.75;;;;;;;-146.58;100.00;69501.63;5049764;28;20495;-63
2023/12/31 03:09:30;;;;;;;3.58;3.17;;;;;;;-146.58;100.00;69501.63;5048725;28;20045;-63
2023/12/31 03:11:55;;;;;;;4.85;2.60;;;;;;;-146.58;100.00;69501.63;5042199;28;20491;-63
2023/12/31 03:14:20;;;;;;;4.07;3.50;;;;;;;-146.58;100.00;69501.63;5029299;28;20095;-63
2023/12/31 03:16:46;;;;;;;4.68;3.05;;;;;;;-146.58;100.00;69501.63;5030774;28;20021;-63
2023/12/31 03:19:13;;;;;;;3.25;2.80;;;;;;;-146.58;100.00;69501.63;5029344;28;20511;-63
2023/12/31 03:21:39;;;;;;;3.25;2.97;;;;;;;-146.58;100.00;69501.63;5030210;28;20075;-63
2023/12/31 03:24:04;;;;;;;2.95;2.75;;;;;;;-146.58;100.00;69501.63;5029035;28;20037;-63
2023/12/31 03:26:30;;;;;;;4.72;3.25;;;;;;;-146.58;100.00;69501.63;5030589;28;20025;-63
2023/12/31 03:28:55;;;;;;;6.10;4.68;;;;;;;-146.58;100.00;69501.63;5029007;28;20029;-63
2023/12/31 03:31:20;;;;;;;3.58;3.28;;;;;;;-146.58;100.00;69501.63;5030681;28;20028;-63
2023/12/31 03:33:49;;;;;;;5.60;4.60;;;;;;;-146.58;100.00;69501.63;5028910;28;20029;-63
2023/12/31 03:36:15;;;;;;;7.05;3.42;;;;;;;-146.58;100.00;69501.63;5030456;28;20029;-63
2023/12/31 03:38:40;;;;;;;3.50;3.20;;;;;;;-146.58;100.00;69501.63;5028722;28;20029;-63
2023/12/31 03:41:05;;;;;;;4.28;3.20;;;;;;;-146.58;100.00;69501.63;5030708;28;20551;-63
2023/12/31 03:43:31;;;;;;;6.63;4.78;;;;;;;-146.58;100.00;69501.63;5030098;28;20032;-63
2023/12/31 03:45:59;;;;;;;3.28;3.00;;;;;;;-146.58;100.00;69501.63;5043041;28;20054;-63
2023/12/31 03:48:25;;;;;;;3.47;3.17;;;;;;;-146.58;100.00;69501.63;5050218;28;20028;-63
2023/12/31 03:50:51;;;;;;;6.22;3.55;;;;;;;-146.58;100.00;69501.63;5048815;28;20563;-63
2023/12/31 03:53:16;;;;;;;3.58;3.28;;;;;;;-146.58;100.00;69501.63;5050325;28;20108;-63
2023/12/31 03:55:42;;;;;;;3.50;3.20;;;;;;;-146.58;100.00;69501.63;5048907;28;20417;-63
2023/12/31 03:58:08;;;;;;;5.05;3.53;;;;;;;-146.58;100.00;69501.63;5049971;28;20028;-63
2023/12/31 04:00:34;;;;;;;4.88;3.75;;;;;;;-146.58;100.00;69501.63;5048415;28;20076;-63
2023/12/31 04:02:59;;;;;;;5.80;3.38;;;;;;;-146.58;100.00;69501.63;5049090;28;20033;-63
2023/12/31 04:05:25;;;;;;;6.22;3.38;;;;;;;-146.58;100.00;69501.63;5028455;28;20049;-63
2023/12/31 04:07:50;;;;;;;9.02;3.28;;;;;;;-146.58;100.00;69501.63;5034073;28;20376;-63
2023/12/31 04:10:16;;;;;;;5.03;3.35;;;;;;;-146.58;100.00;69501.63;5048888;28;20098;-63
2023/12/31 04:12:41;;;;;;;5.47;3.28;;;;;;;-146.58;100.00;69501.63;5045932;28;20380;-62
2023/12/31 04:15:08;;;;;;;2.83;2.60;;;;;;;-146.58;100.00;69501.63;5028975;28;20045;-63
2023/12/31 04:17:34;;;;;;;3.90;2.97;;;;;;;-146.58;100.00;69501.63;5031043;28;20037;-63
2023/12/31 04:20:00;;;;;;;3.50;3.17;;;;;;;-146.58;100.00;69501.63;5032361;28;20033;-63
2023/12/31 04:22:25;;;;;;;5.57;3.75;;;;;;;-146.58;100.00;69501.63;5033688;28;20029;-63
2023/12/31 04:24:50;;;;;;;5.38;2.80;;;;;;;-146.58;100.00;69501.63;5032468;28;20132;-63
2023/12/31 04:27:16;;;;;;;8.32;2.85;;;;;;;-146.58;100.00;69501.63;5033699;28;20469;-63
2023/12/31 04:29:41;;;;;;;4.32;2.90;;;;;;;-146.58;100.00;69501.63;5031892;28;20045;-63
2023/12/31 04:32:06;;;;;;;3.45;2.03;;;;;;;-146.58;100.00;69501.63;5033765;28;20025;-63
2023/12/31 04:34:32;;;;;;;4.60;3.90;;;;;;;-146.58;100.00;69501.63;5031914;28;20559;-63
2023/12/31 04:36:57;;;;;;;6.55;3.80;;;;;;;-146.58;100.00;69501.63;5033289;28;20026;-63
2023/12/31 04:39:24;;;;;;;5.90;3.50;;;;;;;-146.58;100.00;69501.63;5032145;28;20033;-63
2023/12/31 04:41:49;;;;;;;2.80;2.60;;;;;;;-146.58;100.00;69501.63;5034205;28;20036;-63
2023/12/31 04:44:15;;;;;;;3.30;2.50;;;;;;;-146.58;100.00;69501.63;5051730;28;20032;-63
2023/12/31 04:46:40;;;;;;;4.70;3.03;;;;;;;-146.58;100.00;69501.63;5053189;28;20078;-63
2023/12/31 04:49:05;;;;;;;3.03;2.72;;;;;;;-146.58;100.00;69501.63;5051534;28;20045;-63
2023/12/31 04:51:31;;;;;;;4.65;4.07;;;;;;;-146.58;100.00;69501.63;5052907;28;20479;-63
2023/12/31 04:53:57;;;;;;;3.10;2.90;;;;;;;-146.58;100.00;69501.63;5051623;28;20032;-63
2023/12/31 04:56:24;;;;;;;2.95;2.65;;;;;;;-146.58;100.00;69501.63;5053195;28;20094;-63
2023/12/31 04:58:51;;;;;;;3.20;2.70;;;;;;;-146.58;100.00;69501.63;5051218;28;20021;-63
2023/12/31 05:01:16;;;;;;;3.65;2.60;;;;;;;-146.58;100.00;69501.63;5053057;28;20035;-63
2023/12/31 05:03:44;;;;;;;3.05;2.80;;;;;;;-146.58;100.00;69501.63;5040242;28;20124;-63
2023/12/31 05:06:10;;;;;;;3.58;2.67;;;;;;;-146.58;100.00;69501.63;5033296;28;20053;-64
2023/12/31 05:08:35;;;;;;;3.10;2.90;;;;;;;-146.58;100.00;69501.63;5033052;28;20021;-63
2023/12/31 05:11:01;;;;;;;3.55;3.25;;;;;;;-146.58;100.00;69501.63;5041554;28;20053;-67
2023/12/31 05:13:26;;;;;;;7.13;4.60;;;;;;;-146.58;100.00;69501.63;5032794;28;20079;-63
2023/12/31 05:15:51;;;;;;;3.53;3.17;;;;;;;-146.58;100.00;69501.63;5031100;28;20045;-63
2023/12/31 05:18:17;;;;;;;3.53;2.80;;;;;;;-146.58;100.00;69501.63;5032666;28;20083;-62
2023/12/31 05:20:42;;;;;;;6.40;2.50;;;;;;;-146.58;100.00;69501.63;5030291;28;20420;-62
2023/12/31 05:23:08;;;;;;;3.72;3.13;;;;;;;-146.58;100.00;69501.63;5032183;28;20481;-62
2023/12/31 05:25:33;;;;;;;21.67;3.85;;;;;;;-146.58;100.00;69501.63;5037864;28;20056;-62
2023/12/31 05:27:58;;;;;;;5.20;3.22;;;;;;;-146.58;100.00;69501.63;5050793;28;20025;-63
2023/12/31 05:30:24;;;;;;;4.05;3.25;;;;;;;-146.58;100.00;69501.63;5031882;28;20049;-62
2023/12/31 05:32:49;;;;;;;4.72;3.08;;;;;;;-146.58;100.00;69501.63;5031594;28;20480;-62
2023/12/31 05:35:14;;;;;;;3.03;2.72;;;;;;;-146.58;100.00;69501.63;5029392;28;20049;-62
2023/12/31 05:37:40;;;;;;;3.95;3.10;;;;;;;-146.58;100.00;69501.63;5031154;28;20048;-62
2023/12/31 05:40:05;;;;;;;2.80;2.50;;;;;;;-146.58;100.00;69501.63;5036119;28;20049;-62
2023/12/31 05:42:31;;;;;;;4.07;3.60;;;;;;;-146.58;100.00;69501.63;5031524;28;20441;-63
2023/12/31 05:44:57;;;;;;;3.65;3.35;;;;;;;-146.58;100.00;69501.63;5029676;28;20041;-63
2023/12/31 05:47:22;;;;;;;3.55;3.25;;;;;;;-146.58;100.00;69501.63;5031633;28;20044;-63
2023/12/31 05:49:48;;;;;;;3.90;3.60;;;;;;;-146.58;100.00;69501.63;5028574;28;20442;-63
2023/12/31 05:52:13;;;;;;;3.85;2.78;;;;;;;-146.58;100.00;69501.63;5031626;28;20040;-63
2023/12/31 05:54:41;;;;;;;3.58;3.28;;;;;;;-146.58;100.00;69501.63;5030131;28;20045;-63
2023/12/31 05:57:06;;;;;;;3.22;2.78;;;;;;;-146.58;100.00;69501.63;5031175;28;20057;-63
2023/12/31 05:59:32;;;;;;;3.63;3.33;;;;;;;-146.58;100.00;69501.63;5032444;28;20051;-63
2023/12/31 06:01:57;;;;;;;2.90;2.65;;;;;;;-146.58;100.00;69501.63;5039056;28;20468;-63
2023/12/31 06:04:23;;;;;;;7.70;3.60;;;;;;;-146.58;100.00;69501.63;5048654;28;20037;-63
2023/12/31 06:06:48;;;;;;;3.13;2.92;;;;;;;-146.58;100.00;69501.63;5051742;28;20032;-62
2023/12/31 06:09:14;;;;;;;3.38;3.15;;;;;;;-146.58;100.00;69501.63;5033063;28;20158;-62
2023/12/31 06:11:39;;;;;;;3.10;2.85;;;;;;;-146.58;100.00;69501.63;5030240;28;20156;-62
2023/12/31 06:14:04;;;;;;;4.43;3.45;;;;;;;-146.58;100.00;69501.63;5029331;28;20590;-62
2023/12/31 06:16:30;;;;;;;5.63;4.18;;;;;;;-146.58;100.00;69501.63;5031379;28;20022;-62
2023/12/31 06:18:55;;;;;;;3.45;2.92;;;;;;;-146.58;100.00;69501.63;5029876;28;20038;-62
2023/12/31 06:21:21;;;;;;;4.50;3.22;;;;;;;-146.58;100.00;69501.63;5030419;28;20028;-62
2023/12/31 06:23:46;;;;;;;6.82;3.97;;;;;;;-146.58;100.00;69501.63;5029585;28;20102;-62
2023/12/31 06:26:11;;;;;;;7.32;4.80;;;;;;;-146.58;100.00;69501.63;5030108;28;20083;-62
2023/12/31 06:28:37;;;;;;;3.95;3.63;;;;;;;-146.58;100.00;69501.63;5046441;28;20032;-62
2023/12/31 06:31:02;;;;;;;3.13;2.83;;;;;;;-146.58;100.00;69501.63;5049165;28;20376;-62
2023/12/31 06:33:28;;;;;;;3.65;3.33;;;;;;;-146.58;100.00;69501.63;5030020;28;20036;-62
2023/12/31 06:35:53;;;;;;;3.30;3.00;;;;;;;-146.58;100.00;69501.63;5028687;28;20038;-62
2023/12/31 06:38:18;;;;;;;4.43;4.03;;;;;;;-146.58;100.00;69501.63;5041895;28;20026;-62
2023/12/31 06:40:44;;;;;;;3.35;3.15;;;;;;;-146.58;100.00;69501.63;5028988;28;20045;-62
2023/12/31 06:43:10;;;;;;;6.60;4.53;;;;;;;-146.58;100.00;69501.63;5030223;28;20388;-61
2023/12/31 06:45:35;;;;;;;4.30;3.05;;;;;;;-146.58;100.00;69501.63;5028998;28;20413;-62
2023/12/31 06:48:00;;;;;;;4.28;3.97;;;;;;;-146.58;100.00;69501.63;5030309;28;20025;-61
2023/12/31 06:50:26;;;;;;;4.18;3.78;;;;;;;-146.58;100.00;69501.63;5025280;28;20045;-62
2023/12/31 06:52:51;;;;;;;7.07;3.55;;;;;;;-146.58;100.00;69501.63;5029871;28;20028;-62
2023/12/31 06:55:17;;;;;;;4.57;3.92;;;;;;;-146.58;100.00;69501.63;5028514;28;20110;-62
2023/12/31 06:57:43;;;;;;;11.43;3.78;;;;;;;-146.58;100.00;69501.63;5041733;28;20029;-61
2023/12/31 07:00:09;;;;;;;5.88;3.30;;;;;;;-146.58;100.00;69501.63;5048957;28;20037;-62
2023/12/31 07:02:35;;;;;;;4.95;4.22;;;;;;;-146.58;100.00;69501.63;5038087;28;20033;-62
2023/12/31 07:05:00;;;;;;;3.88;3.22;;;;;;;-146.58;100.00;69501.63;5027532;28;20037;-59
2023/12/31 07:07:26;;;;;;;10.25;3.40;;;;;;;-146.58;100.00;69501.63;5037904;28;20416;-59
2023/12/31 07:09:51;;;;;;;3.85;3.38;;;;;;;-146.58;100.00;69501.63;5049075;28;20040;-60
2023/12/31 07:12:17;;;;;;;4.10;2.53;;;;;;;-146.58;100.00;69501.63;5033588;28;20481;-59
2023/12/31 07:14:42;;;;;;;3.60;3.15;;;;;;;-146.58;100.00;69501.63;5028601;28;20045;-59
2023/12/31 07:17:07;;;;;;;3.25;3.05;;;;;;;-146.58;100.00;69501.63;5030839;28;20503;-58
2023/12/31 07:19:33;;;;;;;4.72;4.13;;;;;;;-146.58;100.00;69501.63;5027245;28;20046;-59
2023/12/31 07:21:58;;;;;;;4.30;3.75;;;;;;;-146.58;100.00;69501.63;5030449;28;20068;-59
2023/12/31 07:24:23;;;;;;;6.05;3.80;;;;;;;-146.58;100.00;69501.63;5028693;28;20481;-59
2023/12/31 07:26:49;;;;;;;2.85;2.60;;;;;;;-146.58;100.00;69501.63;5033504;28;20024;-59
2023/12/31 07:29:14;;;;;;;10.30;4.25;;;;;;;-146.58;100.00;69501.63;5030988;28;20053;-58
2023/12/31 07:31:39;;;;;;;3.30;3.08;;;;;;;-146.58;100.00;69501.63;5030160;28;20465;-59
2023/12/31 07:34:05;;;;;;;4.07;3.40;;;;;;;-146.58;100.00;69501.63;5027533;28;20046;-59
2023/12/31 07:36:31;;;;;;;6.28;3.20;;;;;;;-146.58;100.00;69501.63;5038490;28;20028;-58
2023/12/31 07:38:56;;;;;;;3.85;3.45;;;;;;;-146.58;100.00;69501.63;5048646;28;20036;-59
2023/12/31 07:41:21;;;;;;;3.60;3.20;;;;;;;-146.58;100.00;69501.63;5034371;28;20030;-59
2023/12/31 07:43:47;;;;;;;5.20;3.72;;;;;;;-146.58;100.00;69501.63;5028403;28;20029;-59
2023/12/31 07:46:13;;;;;;;3.42;3.08;;;;;;;-146.58;100.00;69501.63;5030292;28;20017;-59
2023/12/31 07:48:39;;;;;;;3.60;3.30;;;;;;;-146.58;100.00;69501.63;5026978;28;20021;-59
2023/12/31 07:51:06;;;;;;;3.45;3.25;;;;;;;-146.58;100.00;69501.63;5028748;28;20029;-59
2023/12/31 07:53:32;;;;;;;7.28;3.17;;;;;;;-146.58;100.00;69501.63;5032026;28;20052;-59
2023/12/31 07:55:59;;;;;;;3.63;3.33;;;;;;;-146.58;100.00;69501.63;5030995;28;20093;-59
2023/12/31 07:58:27;;;;;;;5.85;4.32;;;;;;;-146.58;100.00;69501.63;5034021;28;20025;-59
2023/12/31 08:00:53;;;;;;;5.13;4.40;;;;;;;-146.58;100.00;69501.63;5032616;28;20124;-59
2023/12/31 08:03:18;;;;;;;4.47;4.10;;;;;;;-146.58;100.00;69501.63;5032355;28;20449;-59
2023/12/31 08:05:43;;;;;;;4.10;3.72;;;;;;;-146.58;100.00;69501.63;5031788;28;20045;-59
2023/12/31 08:08:11;;;;;;;4.20;3.35;;;;;;;-146.58;100.00;69501.63;5033518;28;20033;-59
2023/12/31 08:10:40;;;;;;;7.35;4.18;;;;;;;-146.58;100.00;69501.63;5035891;28;20497;-59
2023/12/31 08:13:08;;;;;;;3.22;3.03;;;;;;;-146.58;100.00;69501.63;5033646;28;20217;-59
2023/12/31 08:15:34;;;;;;;6.53;3.95;;;;;;;-146.58;100.00;69501.63;5031881;28;20045;-59
2023/12/31 08:17:59;;;;;;;6.78;3.38;;;;;;;-146.58;100.00;69501.63;5032258;28;20036;-58
2023/12/31 08:20:24;;;;;;;6.50;4.03;;;;;;;-146.58;100.00;69501.63;5051946;28;20067;-59
2023/12/31 08:22:53;;;;;;;4.00;3.70;;;;;;;-146.58;100.00;69501.63;5048693;28;20018;-59
2023/12/31 08:25:19;;;;;;;4.05;3.70;;;;;;;-146.58;100.00;69501.63;5030525;28;20037;-59
2023/12/31 08:27:45;;;;;;;6.03;3.90;;;;;;;-146.58;100.00;69501.63;5032863;28;20021;-59
2023/12/31 08:30:11;;;;;;;3.58;3.28;;;;;;;-146.58;100.00;69501.63;5031669;28;20095;-59
2023/12/31 08:32:36;;;;;;;6.35;3.60;;;;;;;-146.58;100.00;69501.63;5031892;28;20037;-59
2023/12/31 08:35:01;;;;;;;4.88;3.97;;;;;;;-146.58;100.00;69501.63;5031997;28;20046;-58
2023/12/31 08:37:28;;;;;;;4.15;3.75;;;;;;;-146.58;100.00;69501.63;5036096;28;20032;-59
2023/12/31 08:39:54;;;;;;;3.97;3.63;;;;;;;-146.58;100.00;69501.63;5050437;28;20033;-59
2023/12/31 08:42:20;;;;;;;3.40;3.17;;;;;;;-146.58;100.00;69501.63;5038667;28;20473;-59
2023/12/31 08:44:45;;;;;;;3.55;3.25;;;;;;;-146.58;100.00;69501.63;5031197;28;20505;-59
2023/12/31 08:47:11;;;;;;;4.18;3.13;;;;;;;-146.58;100.00;69501.63;5032032;28;20675;-59
2023/12/31 08:49:36;;;;;;;5.45;4.85;;;;;;;-146.58;100.00;69501.63;5031315;28;20049;-59
2023/12/31 08:52:01;;;;;;;5.15;3.33;;;;;;;-146.58;100.00;69501.63;5032550;28;20025;-59
2023/12/31 08:54:27;;;;;;;3.95;3.55;;;;;;;-146.58;100.00;69501.63;5030080;28;20064;-59
2023/12/31 08:56:52;;;;;;;4.65;3.33;;;;;;;-146.58;100.00;69501.63;5032378;28;20033;-59
2023/12/31 08:59:17;;;;;;;3.85;3.45;;;;;;;-146.58;100.00;69501.63;5031343;28;20049;-59
2023/12/31 09:01:43;;;;;;;3.45;3.22;;;;;;;-146.58;100.00;69501.63;5031863;28;20075;-59
2023/12/31 09:04:10;;;;;;;4.10;3.70;;;;;;;-146.58;100.00;69501.63;5029042;28;20037;-59
2023/12/31 09:06:36;;;;;;;4.47;3.47;;;;;;;-146.58;100.00;69501.63;5032666;28;20060;-59
2023/12/31 09:09:01;;;;;;;14.05;5.03;;;;;;;-146.58;100.00;69501.63;5030386;28;20401;-59
2023/12/31 09:11:26;;;;;;;6.10;4.30;;;;;;;-146.58;100.00;69501.63;5031017;28;20120;-59
2023/12/31 09:13:52;;;;;;;4.03;3.67;;;;;;;-146.58;100.00;69501.63;5030655;28;20029;-59
2023/12/31 09:16:17;;;;;;;5.82;3.78;;;;;;;-146.58;100.00;69501.63;5031425;28;20021;-58
2023/12/31 09:18:42;;;;;;;4.22;3.92;;;;;;;-146.58;100.00;69501.63;5030079;28;20033;-58
2023/12/31 09:21:08;;;;;;;4.10;3.80;;;;;;;-146.58;100.00;69501.63;5032964;28;20443;-59
2023/12/31 09:23:33;;;;;;;4.45;3.40;;;;;;;-146.58;100.00;69501.63;5031323;28;20041;-59
2023/12/31 09:25:59;;;;;;;6.18;3.47;;;;;;;-146.58;100.00;69501.63;5029963;28;20038;-59
2023/12/31 09:28:25;;;;;;;8.63;3.65;;;;;;;-146.58;100.00;69501.63;5031359;28;20527;-59
2023/12/31 09:30:50;;;;;;;5.80;4.13;;;;;;;-146.58;100.00;69501.63;5030665;28;20568;-59
2023/12/31 09:33:16;;;;;;;6.25;4.05;;;;;;;-146.58;100.00;69501.63;5030994;28;20029;-58
2023/12/31 09:35:41;;;;;;;7.97;3.35;;;;;;;-146.58;100.00;69501.63;5030043;28;20050;-59
2023/12/31 09:38:06;;;;;;;3.72;3.42;;;;;;;-146.58;100.00;69501.63;5034602;28;20389;-59
2023/12/31 09:40:32;;;;;;;3.78;3.47;;;;;;;-146.58;100.00;69501.63;5035374;28;20049;-58
2023/12/31 09:43:01;;;;;;;3.78;3.47;;;;;;;-146.58;100.00;69501.63;5031455;28;20025;-59
2023/12/31 09:45:29;;;;;;;3.97;3.67;;;;;;;-146.58;100.00;69501.63;5029252;28;20041;-59
2023/12/31 09:47:59;;;;;;;3.42;3.13;;;;;;;-146.58;100.00;69501.63;5029732;28;20021;-58
2023/12/31 09:50:25;;;;;;;3.00;2.47;;;;;;;-146.58;100.00;69501.63;5029844;28;20041;-59
2023/12/31 09:52:54;;;;;;;3.67;3.35;;;;;;;-146.58;100.00;69501.63;5012314;28;20483;-58
2023/12/31 09:55:20;;;;;;;3.00;2.70;;;;;;;-146.58;100.00;69501.63;5009397;28;20405;-58
2023/12/31 09:57:47;;;;;;;4.00;3.70;;;;;;;-146.58;100.00;69501.63;5011243;28;20029;-59
2023/12/31 10:00:13;;;;;;;3.00;2.78;;;;;;;-146.58;100.00;69501.63;5019271;28;20412;-59
2023/12/31 10:02:39;;;;;;;3.38;3.05;;;;;;;-146.58;100.00;69501.63;5030805;28;20026;-58
2023/12/31 10:05:05;;;;;;;2.58;2.38;;;;;;;-146.58;100.00;69501.63;5030008;28;20042;-59
2023/12/31 10:07:31;;;;;;;3.22;3.00;;;;;;;-146.58;100.00;69501.63;5031230;28;20034;-59
2023/12/31 10:10:00;;;;;;;4.72;3.85;;;;;;;-146.58;100.00;69501.63;5029329;28;20057;-59
2023/12/31 10:12:27;;;;;;;3.85;3.55;;;;;;;-146.58;100.00;69501.63;5030484;28;20049;-59
2023/12/31 10:14:53;;;;;;;3.05;2.85;;;;;;;-146.58;100.00;69501.63;5029463;28;20519;-56
2023/12/31 10:17:19;;;;;;;4.63;3.60;;;;;;;-146.58;100.00;69501.63;5029062;28;20025;-57
2023/12/31 10:19:47;;;;;;;3.83;2.83;;;;;;;-146.58;100.00;69501.63;5029572;28;20044;-57
2023/12/31 10:22:16;;;;;;;2.92;2.50;;;;;;;-146.58;100.00;69501.63;5028504;28;20078;-57
2023/12/31 10:24:41;;;;;;;3.78;3.45;;;;;;;-146.58;100.00;69501.63;5024955;28;20037;-57
2023/12/31 10:27:08;;;;;;;3.20;2.85;;;;;;;-146.58;100.00;69501.63;5029329;28;20554;-57
2023/12/31 10:29:34;;;;;;;8.23;3.05;;;;;;;-146.58;100.00;69501.63;5025713;28;20045;-57
2023/12/31 10:32:06;;;;;;;2.92;2.63;;;;;;;-146.58;100.00;69501.63;5028040;28;20487;-57
2023/12/31 10:34:32;;;;;;;5.40;3.63;;;;;;;-146.58;100.00;69501.63;5027097;28;20044;-57
2023/12/31 10:37:05;;;;;;;4.40;3.42;;;;;;;-146.58;100.00;69501.63;5027837;28;20388;-57
2023/12/31 10:39:36;;;;;;;5.28;4.03;;;;;;;-146.58;100.00;69501.63;5025068;28;20052;-57
2023/12/31 10:42:06;;;;;;;17.55;4.45;;;;;;;-146.58;100.00;69501.63;5019142;28;20029;-57
2023/12/31 10:44:34;;;;;;;7.57;3.58;;;;;;;-146.58;100.00;69501.63;5026892;28;20128;-57
2023/12/31 10:47:06;;;;;;;3.88;3.58;;;;;;;-146.58;100.00;69501.63;5042957;28;20506;-56
2023/12/31 10:49:33;;;;;;;3.80;2.97;;;;;;;-146.58;100.00;69501.63;5047027;28;20133;-57
2023/12/31 10:52:03;;;;;;;4.90;2.63;;;;;;;-146.58;100.00;69501.63;5047746;28;20021;-57
2023/12/31 10:54:54;;;;;;;3.97;3.67;;;;;;;-146.58;100.00;69501.63;5047752;28;20040;-57
2023/12/31 10:57:21;;;;;;;3.83;3.45;;;;;;;-146.58;100.00;69501.63;5032704;28;20025;-56
2023/12/31 10:59:47;;;;;;;3.78;3.47;;;;;;;-146.58;100.00;69501.63;5028024;28;20095;-56
2023/12/31 11:02:17;;;;;;;3.05;2.85;;;;;;;-146.58;100.00;69501.63;5046952;28;20025;-57
2023/12/31 11:04:45;;;;;;;3.80;3.38;;;;;;;-146.58;100.00;69501.63;5047269;28;20052;-56